Dubuque Regional Airport


Codes: KDBQ/DBQ
Name: Dubuque Regional Airport
City: Dubuque
Country: United States
Elevation: 1077 ft.
Wikipedia:

Photos at Dubuque Regional Airport


   Photos courtesy of SpottingLog. You can add your own sightings and photos by signing up for a free trial today.



No photos found.

Weather at Dubuque Regional Airport


Time (UTC)DescriptionTempratureWindCloud coverageVisibilityPressureHumidity
13-Jun-2024 03:00Light Rain22°C11 mph, S0%10000m999hPa68%
13-Jun-2024 06:00Light Rain22°C16 mph, SW28%9199m1002hPa75%
13-Jun-2024 09:00Light Rain20°C7 mph, SW67%10000m1005hPa88%
13-Jun-2024 12:00Broken Clouds19°C7 mph, SW69%10000m1009hPa96%
13-Jun-2024 15:00Scattered Clouds24°C4 mph, SW43%10000m1009hPa83%
13-Jun-2024 18:00Broken Clouds26°C11 mph, NW60%10000m1010hPa78%
13-Jun-2024 21:00Light Rain25°C4 mph, NW100%10000m1011hPa68%
14-Jun-2024 00:00Light Rain22°C7 mph, NW87%10000m1012hPa83%
14-Jun-2024 03:00Light Rain18°C9 mph, N26%10000m1013hPa90%
14-Jun-2024 06:00Few Clouds14°C7 mph, N13%10000m1015hPa85%
14-Jun-2024 09:00Clear Sky13°C4 mph, N0%10000m1016hPa84%
14-Jun-2024 12:00Clear Sky16°C0 mph, N0%10000m1017hPa78%
14-Jun-2024 15:00Clear Sky21°C4 mph, NW0%10000m1017hPa64%
14-Jun-2024 18:00Clear Sky23°C9 mph, NW0%10000m1017hPa61%
14-Jun-2024 21:00Clear Sky24°C9 mph, NW8%10000m1017hPa58%
15-Jun-2024 00:00Scattered Clouds21°C7 mph, N42%10000m1017hPa79%
15-Jun-2024 03:00Overcast Clouds16°C7 mph, NE99%10000m1017hPa86%
15-Jun-2024 06:00Overcast Clouds15°C4 mph, SE94%10000m1018hPa87%
15-Jun-2024 09:00Overcast Clouds15°C4 mph, SE100%10000m1017hPa87%
15-Jun-2024 12:00Overcast Clouds16°C7 mph, SE100%10000m1018hPa88%
15-Jun-2024 15:00Overcast Clouds18°C13 mph, SE100%10000m1016hPa87%
15-Jun-2024 18:00Light Rain18°C11 mph, SE100%10000m1015hPa91%
15-Jun-2024 21:00Light Rain18°C11 mph, SE100%10000m1014hPa92%
16-Jun-2024 00:00Overcast Clouds20°C13 mph, SE100%10000m1011hPa84%
16-Jun-2024 03:00Light Rain19°C13 mph, SE100%10000m1011hPa83%
16-Jun-2024 06:00Light Rain18°C13 mph, SE100%9832m1010hPa93%
16-Jun-2024 09:00Light Rain17°C13 mph, SE100%10000m1009hPa97%
16-Jun-2024 12:00Overcast Clouds19°C11 mph, S100%9821m1008hPa98%
16-Jun-2024 15:00Light Rain23°C20 mph, SW100%10000m1008hPa90%
16-Jun-2024 18:00Light Rain24°C18 mph, SW100%10000m1007hPa85%
16-Jun-2024 21:00Overcast Clouds26°C13 mph, SW100%10000m1007hPa82%
17-Jun-2024 00:00Light Rain27°C11 mph, SW73%10000m1007hPa84%
17-Jun-2024 03:00Light Rain24°C7 mph, S37%10000m1008hPa95%
17-Jun-2024 06:00Light Rain24°C11 mph, SW68%10000m1008hPa95%
17-Jun-2024 09:00Light Rain23°C11 mph, SW91%10000m1009hPa95%
17-Jun-2024 12:00Light Rain22°C9 mph, S76%10000m1010hPa96%
17-Jun-2024 15:00Light Rain27°C13 mph, SW44%10000m1011hPa80%
17-Jun-2024 18:00Light Rain28°C13 mph, SW73%10000m1010hPa70%
17-Jun-2024 21:00Light Rain28°C13 mph, SW72%10000m1009hPa75%
18-Jun-2024 00:00Moderate Rain21°C20 mph, W85%10000m1011hPa92%